| time (UTC) | temp F | wind direction | speed knots | gust knots | rain 1hr in | rain 24hr in | rain mn in | humidity % | barometer mb |
| 20260508035927 | 42 | 52 | 0.0 | 0.0 | 0.00 | 0.00 | 0.00 | 66 | 1002.0 |
| 20260508035423 | 43 | 51 | 0.0 | 0.0 | 0.00 | 0.00 | 0.00 | 65 | 1002.0 |
| 20260508034920 | 44 | 26 | 0.9 | 0.9 | 0.00 | 0.00 | 0.00 | 62 | 1002.2 |
| 20260508034418 | 45 | 71 | 0.9 | 0.9 | 0.00 | 0.00 | 0.00 | 58 | 1002.4 |
| 20260508033914 | 45 | 72 | 0.0 | 0.0 | 0.00 | 0.00 | 0.00 | 54 | 1002.2 |
| 20260508033412 | 46 | 72 | 0.0 | 0.0 | 0.00 | 0.00 | 0.00 | 53 | 1002.4 |
| 20260508032909 | 45 | 72 | 0.0 | 0.0 | 0.00 | 0.00 | 0.00 | 55 | 1002.1 |
| 20260508032407 | 44 | 72 | 0.0 | 0.0 | 0.00 | 0.00 | 0.00 | 53 | 1002.3 |
| 20260508031903 | 43 | 73 | 0.0 | 0.0 | 0.00 | 0.00 | 0.00 | 57 | 1002.3 |
| 20260508031401 | 43 | 73 | 0.0 | 0.0 | 0.00 | 0.00 | 0.00 | 63 | 1002.1 |
| 20260508030856 | 44 | 73 | 0.0 | 0.0 | 0.00 | 0.00 | 0.00 | 64 | 1002.0 |
| 20260508030353 | 44 | 73 | 0.0 | 0.0 | 0.00 | 0.18 | 0.18 | 61 | 1001.9 |
| 20260508025851 | 45 | 73 | 0.0 | 0.0 | 0.00 | 0.18 | 0.18 | 57 | 1002.1 |
| 20260508025347 | 45 | 73 | 0.0 | 0.0 | 0.00 | 0.18 | 0.18 | 58 | 1002.1 |
| 20260508024844 | 45 | 73 | 0.0 | 0.0 | 0.00 | 0.18 | 0.18 | 54 | 1002.0 |
| 20260508024340 | 46 | 73 | 0.0 | 0.0 | 0.00 | 0.18 | 0.18 | 54 | 1002.1 |
| 20260508023832 | 46 | 73 | 0.0 | 0.0 | 0.00 | 0.18 | 0.18 | 53 | 1002.0 |
| 20260508023328 | 47 | 73 | 0.0 | 0.0 | 0.00 | 0.18 | 0.18 | 49 | 1001.9 |
| 20260508022825 | 47 | 75 | 0.0 | 0.0 | 0.00 | 0.18 | 0.18 | 48 | 1001.9 |
| 20260508022321 | 48 | 75 | 0.0 | 0.0 | 0.00 | 0.18 | 0.18 | 47 | 1001.6 |
| 20260508021818 | 48 | 59 | 0.0 | 0.0 | 0.00 | 0.18 | 0.18 | 49 | 1001.8 |
| 20260508021314 | 47 | 46 | 0.9 | 0.9 | 0.00 | 0.18 | 0.18 | 49 | 1001.8 |
| 20260508020810 | 48 | 65 | 0.0 | 0.0 | 0.00 | 0.18 | 0.18 | 48 | 1001.7 |
| 20260508020308 | 48 | 62 | 0.0 | 0.9 | 0.00 | 0.18 | 0.18 | 51 | 1001.9 |
| 20260508015805 | 48 | 20 | 0.9 | 0.9 | 0.00 | 0.18 | 0.18 | 48 | 1001.6 |
| 20260508015305 | 48 | 55 | 0.9 | 0.9 | 0.00 | 0.18 | 0.18 | 49 | 1001.7 |
| 20260508014759 | 49 | 60 | 0.0 | 0.0 | 0.00 | 0.18 | 0.18 | 46 | 1001.5 |
| 20260508014256 | 48 | 74 | 0.9 | 0.9 | 0.00 | 0.18 | 0.18 | 47 | 1001.5 |
| 20260508013751 | 49 | 76 | 0.0 | 0.0 | 0.00 | 0.18 | 0.18 | 50 | 1001.7 |
| 20260508013248 | 49 | 73 | 0.0 | 0.9 | 0.00 | 0.18 | 0.18 | 48 | 1001.4 |
| 20260508012746 | 49 | 71 | 0.0 | 0.9 | 0.00 | 0.18 | 0.18 | 50 | 1001.7 |
| 20260508012242 | 49 | 52 | 0.0 | 0.9 | 0.00 | 0.18 | 0.18 | 49 | 1001.6 |
| 20260508011741 | 49 | 62 | 0.0 | 0.0 | 0.00 | 0.18 | 0.18 | 52 | 1001.5 |
| 20260508011238 | 50 | 91 | 0.9 | 0.9 | 0.00 | 0.18 | 0.18 | 47 | 1001.5 |
| 20260508010735 | 50 | 54 | 0.0 | 0.0 | 0.00 | 0.18 | 0.18 | 47 | 1001.4 |
| 20260508010233 | 50 | 57 | 0.0 | 0.0 | 0.00 | 0.18 | 0.18 | 48 | 1001.4 |
| 20260508005729 | 50 | 41 | 0.9 | 0.9 | 0.00 | 0.18 | 0.18 | 46 | 1001.3 |
| 20260508005226 | 50 | 77 | 0.9 | 0.9 | 0.00 | 0.18 | 0.18 | 49 | 1001.3 |
| 20260508004722 | 50 | 81 | 0.0 | 0.9 | 0.00 | 0.18 | 0.18 | 51 | 1001.1 |
| 20260508004218 | 51 | 64 | 0.0 | 0.0 | 0.00 | 0.18 | 0.18 | 48 | 1001.1 |
| 20260508003715 | 50 | 70 | 0.0 | 0.0 | 0.00 | 0.18 | 0.18 | 51 | 1001.1 |
| 20260508003213 | 51 | 55 | 0.0 | 0.0 | 0.00 | 0.18 | 0.18 | 51 | 1000.8 |
| 20260508002709 | 50 | 72 | 0.0 | 0.0 | 0.00 | 0.18 | 0.18 | 50 | 1000.9 |
| 20260508002207 | 51 | 49 | 0.0 | 0.0 | 0.00 | 0.18 | 0.18 | 50 | 1000.6 |
| 20260508001702 | 51 | 83 | 0.0 | 0.0 | 0.00 | 0.18 | 0.18 | 48 | 1000.8 |
| 20260508001158 | 52 | 66 | 0.0 | 0.9 | 0.00 | 0.18 | 0.18 | 47 | 1000.6 |
| 20260508000654 | 52 | 50 | 0.0 | 0.0 | 0.00 | 0.18 | 0.18 | 49 | 1000.6 |
| 20260508000151 | 52 | 48 | 0.0 | 0.9 | 0.00 | 0.18 | 0.18 | 48 | 1000.6 |
| 20260507235648 | 52 | 46 | 0.0 | 0.0 | 0.00 | 0.18 | 0.18 | 46 | 1000.5 |
| 20260507235145 | 53 | 45 | 0.0 | 0.0 | 0.00 | 0.18 | 0.18 | 46 | 1000.5 |
| 20260507234642 | 53 | 49 | 0.9 | 0.9 | 0.00 | 0.18 | 0.18 | 43 | 1000.1 |
| 20260507234138 | 54 | 43 | 0.9 | 0.9 | 0.00 | 0.18 | 0.18 | 43 | 1000.4 |
| 20260507233635 | 54 | 43 | 0.9 | 1.7 | 0.00 | 0.18 | 0.18 | 43 | 1000.1 |
| 20260507233134 | 55 | 327 | 0.0 | 1.7 | 0.00 | 0.18 | 0.18 | 44 | 1000.2 |
| 20260507232630 | 55 | 6 | 1.7 | 1.7 | 0.00 | 0.18 | 0.18 | 41 | 1000.2 |
| 20260507232127 | 55 | 29 | 0.9 | 0.9 | 0.00 | 0.18 | 0.18 | 40 | 1000.0 |
| 20260507231623 | 56 | 38 | 0.9 | 0.9 | 0.00 | 0.18 | 0.18 | 42 | 999.9 |
| 20260507231121 | 56 | 272 | 2.6 | 2.6 | 0.00 | 0.18 | 0.18 | 41 | 999.9 |
| 20260507230617 | 56 | 43 | 0.9 | 0.9 | 0.00 | 0.18 | 0.18 | 38 | 999.9 |
| 20260507230114 | 56 | 352 | 1.7 | 1.7 | 0.00 | 0.18 | 0.18 | 39 | 999.6 |
| 20260507225609 | 56 | 4 | 1.7 | 2.6 | 0.00 | 0.18 | 0.18 | 40 | 999.3 |
| 20260507225106 | 57 | 25 | 0.9 | 0.9 | 0.00 | 0.18 | 0.18 | 39 | 999.6 |
| 20260507224601 | 58 | 329 | 3.5 | 3.5 | 0.00 | 0.18 | 0.18 | 38 | 999.4 |
| 20260507224058 | 58 | 50 | 0.0 | 0.0 | 0.00 | 0.18 | 0.18 | 38 | 999.3 |
| 20260507223554 | 58 | 51 | 1.7 | 1.7 | 0.00 | 0.18 | 0.18 | 39 | 999.2 |
| 20260507223051 | 58 | 318 | 1.7 | 1.7 | 0.00 | 0.18 | 0.18 | 38 | 999.4 |
| 20260507222548 | 59 | 334 | 1.7 | 2.6 | 0.00 | 0.18 | 0.18 | 37 | 999.1 |
| 20260507222045 | 59 | 4 | 1.7 | 1.7 | 0.00 | 0.18 | 0.18 | 36 | 999.0 |
| 20260507221541 | 59 | 33 | 0.9 | 1.7 | 0.00 | 0.18 | 0.18 | 36 | 998.9 |
| 20260507221038 | 59 | 10 | 1.7 | 1.7 | 0.00 | 0.18 | 0.18 | 37 | 999.0 |
| 20260507220535 | 59 | 299 | 1.7 | 2.6 | 0.00 | 0.18 | 0.18 | 38 | 998.9 |
| 20260507220033 | 59 | 9 | 0.9 | 0.9 | 0.00 | 0.18 | 0.18 | 37 | 998.7 |
| 20260507215529 | 59 | 323 | 3.5 | 3.5 | 0.00 | 0.18 | 0.18 | 38 | 998.9 |
| 20260507215027 | 59 | 294 | 2.6 | 2.6 | 0.00 | 0.18 | 0.18 | 38 | 998.8 |
| 20260507214524 | 59 | 43 | 0.9 | 0.9 | 0.00 | 0.18 | 0.18 | 38 | 998.9 |
| 20260507214020 | 58 | 41 | 0.9 | 0.9 | 0.00 | 0.18 | 0.18 | 40 | 998.9 |
| 20260507213516 | 58 | 46 | 1.7 | 1.7 | 0.00 | 0.18 | 0.18 | 40 | 998.7 |
| 20260507213013 | 59 | 4 | 1.7 | 1.7 | 0.00 | 0.18 | 0.18 | 38 | 998.9 |
| 20260507212509 | 59 | 37 | 0.9 | 0.9 | 0.00 | 0.18 | 0.18 | 40 | 999.0 |
| 20260507212006 | 59 | 311 | 2.6 | 2.6 | 0.00 | 0.18 | 0.18 | 38 | 999.0 |
| 20260507211503 | 59 | 22 | 0.9 | 0.9 | 0.00 | 0.18 | 0.18 | 39 | 998.7 |
| 20260507210959 | 59 | 50 | 1.7 | 2.6 | 0.00 | 0.18 | 0.18 | 40 | 998.8 |
| 20260507210456 | 60 | 48 | 0.0 | 0.9 | 0.00 | 0.18 | 0.18 | 38 | 998.6 |
| 20260507205952 | 60 | 37 | 1.7 | 1.7 | 0.00 | 0.18 | 0.18 | 38 | 998.5 |
| 20260507205449 | 62 | 271 | 4.3 | 5.2 | 0.00 | 0.18 | 0.18 | 36 | 998.6 |
| 20260507204940 | 60 | 25 | 1.7 | 1.7 | 0.00 | 0.18 | 0.18 | 40 | 998.2 |
| 20260507204436 | 61 | 299 | 1.7 | 3.5 | 0.00 | 0.18 | 0.18 | 38 | 998.6 |
| 20260507203934 | 59 | 8 | 1.7 | 1.7 | 0.00 | 0.18 | 0.18 | 43 | 998.4 |
| 20260507203432 | 59 | 300 | 3.5 | 3.5 | 0.00 | 0.18 | 0.18 | 40 | 998.4 |
| 20260507202928 | 61 | 290 | 3.5 | 3.5 | 0.00 | 0.18 | 0.18 | 39 | 998.3 |
| 20260507202425 | 62 | 295 | 2.6 | 2.6 | 0.00 | 0.18 | 0.18 | 38 | 998.1 |
| 20260507201921 | 62 | 297 | 3.5 | 3.5 | 0.00 | 0.18 | 0.18 | 37 | 998.3 |
| 20260507201416 | 62 | 281 | 4.3 | 6.1 | 0.00 | 0.18 | 0.18 | 37 | 998.4 |
| 20260507200913 | 63 | 301 | 3.5 | 5.2 | 0.00 | 0.18 | 0.18 | 37 | 998.4 |
| 20260507200408 | 62 | 279 | 5.2 | 6.1 | 0.00 | 0.18 | 0.18 | 37 | 998.4 |
| 20260507195904 | 63 | 268 | 4.3 | 5.2 | 0.00 | 0.18 | 0.18 | 38 | 998.3 |
| 20260507195402 | 61 | 304 | 5.2 | 6.1 | 0.00 | 0.18 | 0.18 | 38 | 998.3 |
| 20260507194859 | 62 | 265 | 4.3 | 5.2 | 0.00 | 0.18 | 0.18 | 36 | 998.4 |
| 20260507194355 | 62 | 285 | 1.7 | 3.5 | 0.00 | 0.18 | 0.18 | 39 | 998.4 |
| 20260507193852 | 62 | 292 | 3.5 | 5.2 | 0.00 | 0.18 | 0.18 | 41 | 998.3 |
| 20260507193349 | 63 | 330 | 1.7 | 1.7 | 0.00 | 0.18 | 0.18 | 40 | 998.3 |
| 20260507192845 | 62 | 326 | 2.6 | 3.5 | 0.00 | 0.18 | 0.18 | 40 | 998.6 |
| 20260507192342 | 63 | 273 | 5.2 | 7.0 | 0.00 | 0.18 | 0.18 | 42 | 998.2 |
| 20260507191838 | 62 | 311 | 3.5 | 3.5 | 0.00 | 0.18 | 0.18 | 47 | 998.4 |
| 20260507191334 | 61 | 293 | 4.3 | 5.2 | 0.00 | 0.18 | 0.18 | 47 | 998.2 |
| 20260507190832 | 60 | 294 | 1.7 | 2.6 | 0.00 | 0.18 | 0.18 | 50 | 998.5 |
| 20260507190330 | 61 | 20 | 2.6 | 5.2 | 0.00 | 0.18 | 0.18 | 49 | 998.6 |
| 20260507185829 | 61 | 308 | 2.6 | 3.5 | 0.00 | 0.18 | 0.18 | 49 | 998.6 |
| 20260507185325 | 59 | 282 | 3.5 | 3.5 | 0.00 | 0.18 | 0.18 | 54 | 998.5 |
| 20260507184822 | 58 | 283 | 3.5 | 3.5 | 0.00 | 0.18 | 0.18 | 55 | 998.6 |
| 20260507184320 | 60 | 23 | 0.9 | 1.7 | 0.00 | 0.18 | 0.18 | 55 | 998.7 |
| 20260507183817 | 59 | 303 | 3.5 | 3.5 | 0.00 | 0.18 | 0.18 | 56 | 998.7 |
| 20260507183314 | 59 | 298 | 5.2 | 7.8 | 0.00 | 0.18 | 0.18 | 55 | 998.7 |
| 20260507182811 | 61 | 0 | 3.5 | 5.2 | 0.00 | 0.18 | 0.18 | 51 | 998.6 |
| 20260507182307 | 59 | 56 | 1.7 | 2.6 | 0.00 | 0.18 | 0.18 | 52 | 998.5 |
| 20260507181803 | 58 | 310 | 2.6 | 2.6 | 0.00 | 0.18 | 0.18 | 54 | 998.8 |
| 20260507181259 | 58 | 301 | 2.6 | 3.5 | 0.00 | 0.18 | 0.18 | 56 | 998.6 |
| 20260507180756 | 60 | 353 | 1.7 | 1.7 | 0.00 | 0.18 | 0.18 | 55 | 998.5 |
| 20260507180253 | 60 | 77 | 1.7 | 2.6 | 0.00 | 0.18 | 0.18 | 54 | 998.7 |
| 20260507175748 | 60 | 265 | 3.5 | 3.5 | 0.00 | 0.18 | 0.18 | 54 | 998.8 |
| 20260507175246 | 59 | 278 | 2.6 | 2.6 | 0.00 | 0.18 | 0.18 | 54 | 998.8 |
| 20260507174743 | 60 | 334 | 2.6 | 3.5 | 0.00 | 0.18 | 0.18 | 55 | 998.6 |
| 20260507174241 | 61 | 277 | 1.7 | 2.6 | 0.00 | 0.18 | 0.18 | 53 | 998.9 |
| 20260507173738 | 59 | 351 | 1.7 | 2.6 | 0.00 | 0.18 | 0.18 | 55 | 998.9 |
| 20260507173235 | 59 | 315 | 2.6 | 2.6 | 0.00 | 0.18 | 0.18 | 55 | 998.9 |
| 20260507172731 | 60 | 34 | 0.9 | 0.9 | 0.00 | 0.18 | 0.18 | 55 | 998.8 |
| 20260507172229 | 60 | 323 | 1.7 | 1.7 | 0.00 | 0.18 | 0.18 | 52 | 998.7 |
| 20260507171728 | 61 | 292 | 1.7 | 1.7 | 0.00 | 0.18 | 0.18 | 54 | 998.8 |
| 20260507171226 | 61 | 100 | 0.9 | 0.9 | 0.00 | 0.18 | 0.18 | 60 | 998.9 |
| 20260507170723 | 59 | 280 | 2.6 | 2.6 | 0.00 | 0.18 | 0.18 | 54 | 999.1 |
| 20260507170220 | 59 | 298 | 1.7 | 2.6 | 0.00 | 0.18 | 0.18 | 56 | 999.2 |
| 20260507165715 | 59 | 302 | 3.5 | 3.5 | 0.00 | 0.18 | 0.18 | 54 | 999.2 |
| 20260507165212 | 61 | 286 | 4.3 | 6.1 | 0.00 | 0.18 | 0.18 | 54 | 999.0 |
| 20260507164708 | 63 | 279 | 3.5 | 3.5 | 0.00 | 0.18 | 0.18 | 51 | 999.1 |
| 20260507164206 | 61 | 272 | 1.7 | 2.6 | 0.00 | 0.18 | 0.18 | 58 | 999.0 |
| 20260507163702 | 60 | 274 | 3.5 | 3.5 | 0.00 | 0.18 | 0.18 | 51 | 999.2 |
| 20260507163200 | 59 | 307 | 2.6 | 2.6 | 0.00 | 0.18 | 0.18 | 54 | 999.2 |
| 20260507162656 | 59 | 316 | 1.7 | 1.7 | 0.00 | 0.18 | 0.18 | 56 | 999.4 |
| 20260507162152 | 60 | 359 | 1.7 | 1.7 | 0.00 | 0.18 | 0.18 | 54 | 999.4 |
| 20260507161648 | 60 | 36 | 0.9 | 0.9 | 0.00 | 0.18 | 0.18 | 52 | 999.3 |
| 20260507161145 | 58 | 288 | 2.6 | 2.6 | 0.00 | 0.18 | 0.18 | 53 | 999.6 |
| 20260507160641 | 59 | 348 | 1.7 | 1.7 | 0.00 | 0.18 | 0.18 | 55 | 999.5 |
| 20260507160138 | 60 | 285 | 4.3 | 5.2 | 0.00 | 0.18 | 0.18 | 52 | 999.5 |
| 20260507155634 | 61 | 341 | 1.7 | 1.7 | 0.00 | 0.18 | 0.18 | 54 | 999.7 |
| 20260507155130 | 59 | 335 | 1.7 | 1.7 | 0.00 | 0.18 | 0.18 | 55 | 999.7 |
| 20260507154627 | 60 | 19 | 0.9 | 1.7 | 0.00 | 0.18 | 0.18 | 54 | 999.9 |
| 20260507154124 | 60 | 200 | 1.7 | 1.7 | 0.00 | 0.18 | 0.18 | 55 | 999.9 |
| 20260507153615 | 58 | 25 | 0.9 | 0.9 | 0.00 | 0.18 | 0.18 | 56 | 999.9 |
| 20260507153111 | 61 | 323 | 1.7 | 2.6 | 0.00 | 0.18 | 0.18 | 55 | 999.8 |
| 20260507152607 | 60 | 30 | 0.9 | 0.9 | 0.00 | 0.18 | 0.18 | 57 | 1000.0 |
| 20260507152058 | 60 | 307 | 3.5 | 3.5 | 0.00 | 0.18 | 0.18 | 55 | 1000.1 |
| 20260507151554 | 59 | 280 | 3.5 | 3.5 | 0.00 | 0.18 | 0.18 | 54 | 999.9 |
| 20260507151052 | 60 | 298 | 3.5 | 3.5 | 0.00 | 0.18 | 0.18 | 57 | 1000.0 |
| 20260507150549 | 59 | 321 | 1.7 | 2.6 | 0.00 | 0.18 | 0.18 | 58 | 999.8 |
| 20260507150045 | 59 | 318 | 2.6 | 2.6 | 0.00 | 0.18 | 0.18 | 59 | 999.9 |
| 20260507145540 | 59 | 17 | 1.7 | 1.7 | 0.00 | 0.18 | 0.18 | 61 | 1000.1 |
| 20260507145038 | 58 | 31 | 0.9 | 1.7 | 0.00 | 0.18 | 0.18 | 62 | 1000.1 |
| 20260507144534 | 58 | 271 | 4.3 | 5.2 | 0.00 | 0.18 | 0.18 | 62 | 1000.2 |
| 20260507144032 | 57 | 76 | 0.0 | 0.0 | 0.00 | 0.18 | 0.18 | 63 | 1000.0 |
| 20260507143529 | 58 | 252 | 1.7 | 2.6 | 0.00 | 0.18 | 0.18 | 65 | 1000.5 |
| 20260507143027 | 57 | 286 | 2.6 | 3.5 | 0.00 | 0.18 | 0.18 | 66 | 1000.3 |
| 20260507142522 | 58 | 60 | 0.9 | 0.9 | 0.00 | 0.18 | 0.18 | 70 | 1000.5 |
| 20260507142019 | 57 | 351 | 1.7 | 1.7 | 0.00 | 0.18 | 0.18 | 71 | 1000.5 |
| 20260507141515 | 57 | 310 | 1.7 | 1.7 | 0.00 | 0.18 | 0.18 | 69 | 1000.4 |
| 20260507141012 | 57 | 29 | 0.9 | 1.7 | 0.00 | 0.18 | 0.18 | 72 | 1000.6 |
| 20260507140509 | 56 | 4 | 1.7 | 1.7 | 0.00 | 0.18 | 0.18 | 68 | 1000.8 |
| 20260507140007 | 56 | 319 | 1.7 | 1.7 | 0.00 | 0.18 | 0.18 | 73 | 1000.7 |
| 20260507135503 | 56 | 45 | 0.9 | 1.7 | 0.00 | 0.18 | 0.18 | 72 | 1000.8 |
| 20260507135000 | 55 | 12 | 0.9 | 0.9 | 0.00 | 0.18 | 0.18 | 69 | 1000.8 |
| 20260507134456 | 55 | 53 | 0.0 | 0.0 | 0.00 | 0.18 | 0.18 | 72 | 1000.7 |
| 20260507133953 | 55 | 36 | 0.9 | 0.9 | 0.00 | 0.18 | 0.18 | 73 | 1000.8 |
| 20260507133448 | 54 | 355 | 1.7 | 1.7 | 0.00 | 0.18 | 0.18 | 76 | 1000.7 |
| 20260507132947 | 54 | 58 | 0.0 | 0.9 | 0.00 | 0.18 | 0.18 | 76 | 1000.6 |
| 20260507132443 | 53 | 332 | 1.7 | 1.7 | 0.00 | 0.18 | 0.18 | 77 | 1000.5 |
| 20260507131939 | 53 | 2 | 1.7 | 1.7 | 0.00 | 0.18 | 0.18 | 75 | 1000.6 |
| 20260507131437 | 53 | 23 | 0.9 | 1.7 | 0.00 | 0.18 | 0.18 | 76 | 1000.7 |
| 20260507130934 | 53 | 351 | 1.7 | 1.7 | 0.00 | 0.18 | 0.18 | 76 | 1000.8 |
| 20260507130431 | 52 | 56 | 0.0 | 0.9 | 0.00 | 0.18 | 0.18 | 80 | 1000.7 |
| 20260507125929 | 52 | 8 | 0.9 | 1.7 | 0.00 | 0.18 | 0.18 | 81 | 1000.8 |
| 20260507125427 | 51 | 10 | 0.9 | 1.7 | 0.00 | 0.18 | 0.18 | 82 | 1000.9 |
| 20260507124924 | 51 | 54 | 0.0 | 0.0 | 0.00 | 0.18 | 0.18 | 85 | 1000.9 |
| 20260507124420 | 50 | 51 | 0.0 | 0.0 | 0.00 | 0.18 | 0.18 | 86 | 1000.9 |
| 20260507123919 | 50 | 69 | 0.0 | 0.0 | 0.00 | 0.18 | 0.18 | 80 | 1001.1 |
| 20260507123415 | 50 | 48 | 0.9 | 0.9 | 0.00 | 0.18 | 0.18 | 85 | 1000.9 |
| 20260507122912 | 49 | 57 | 0.9 | 1.7 | 0.00 | 0.18 | 0.18 | 85 | 1001.1 |
| 20260507122407 | 49 | 94 | 0.0 | 0.9 | 0.00 | 0.18 | 0.18 | 87 | 1001.0 |
| 20260507121904 | 48 | 38 | 0.9 | 0.9 | 0.00 | 0.18 | 0.18 | 88 | 1001.2 |
| 20260507121359 | 48 | 50 | 0.0 | 0.0 | 0.00 | 0.18 | 0.18 | 88 | 1001.0 |
| 20260507120856 | 47 | 69 | 0.0 | 0.0 | 0.00 | 0.18 | 0.18 | 89 | 1001.3 |
| 20260507120352 | 47 | 62 | 0.0 | 0.0 | 0.00 | 0.18 | 0.18 | 90 | 1001.2 |
| 20260507115849 | 47 | 56 | 0.0 | 0.0 | 0.00 | 0.18 | 0.18 | 92 | 1001.1 |
| 20260507115344 | 47 | 301 | 0.9 | 1.7 | 0.00 | 0.18 | 0.18 | 93 | 1000.9 |
| 20260507114840 | 46 | 35 | 0.0 | 0.0 | 0.00 | 0.18 | 0.18 | 93 | 1001.0 |
| 20260507114338 | 46 | 36 | 0.0 | 0.0 | 0.00 | 0.18 | 0.18 | 95 | 1001.0 |
| 20260507113835 | 45 | 37 | 0.0 | 0.0 | 0.00 | 0.18 | 0.18 | 95 | 1000.9 |
| 20260507113332 | 45 | 41 | 0.0 | 0.9 | 0.00 | 0.18 | 0.18 | 97 | 1001.3 |
| 20260507112829 | 45 | 42 | 0.0 | 0.0 | 0.00 | 0.18 | 0.18 | 96 | 1001.1 |
| 20260507112326 | 45 | 42 | 0.0 | 0.0 | 0.00 | 0.18 | 0.18 | 98 | 1001.2 |
| 20260507111824 | 44 | 42 | 0.0 | 0.0 | 0.00 | 0.18 | 0.18 | 98 | 1001.6 |
| 20260507111320 | 44 | 42 | 0.0 | 0.0 | 0.00 | 0.18 | 0.18 | 99 | 1001.2 |
| 20260507110817 | 44 | 42 | 0.0 | 0.0 | 0.07 | 0.18 | 0.18 | 98 | 1001.1 |
| 20260507110313 | 44 | 42 | 0.0 | 0.0 | 0.07 | 0.18 | 0.18 | 98 | 1001.3 |
| 20260507105810 | 45 | 42 | 0.0 | 0.0 | 0.00 | 0.17 | 0.17 | 99 | 1001.7 |
| 20260507105307 | 44 | 42 | 0.0 | 0.0 | 0.00 | 0.17 | 0.17 | 99 | 1001.1 |
| 20260507104803 | 44 | 42 | 0.0 | 0.0 | 0.00 | 0.17 | 0.17 | 99 | 1001.3 |
| 20260507104259 | 44 | 42 | 0.0 | 0.0 | 0.00 | 0.17 | 0.17 | 99 | 1001.2 |
| 20260507103755 | 44 | 41 | 0.0 | 0.0 | 0.00 | 0.17 | 0.17 | 99 | 1001.6 |
| 20260507103252 | 44 | 42 | 0.0 | 0.0 | 0.00 | 0.17 | 0.17 | 99 | 1001.1 |
| 20260507102748 | 44 | 42 | 0.0 | 0.0 | 0.00 | 0.17 | 0.17 | 99 | 1001.5 |
| 20260507102240 | 44 | 42 | 0.0 | 0.0 | 0.00 | 0.17 | 0.17 | 99 | 1001.3 |
| 20260507101736 | 44 | 41 | 0.0 | 0.0 | 0.00 | 0.17 | 0.17 | 99 | 1001.3 |
| 20260507101231 | 44 | 41 | 0.0 | 0.0 | 0.00 | 0.17 | 0.17 | 99 | 1001.6 |
| 20260507100728 | 44 | 41 | 0.0 | 0.9 | 0.00 | 0.17 | 0.17 | 99 | 1001.3 |
| 20260507100227 | 44 | 48 | 0.0 | 0.0 | 0.00 | 0.17 | 0.17 | 99 | 1001.0 |
| 20260507095724 | 44 | 49 | 0.0 | 0.0 | 0.00 | 0.17 | 0.17 | 99 | 1000.8 |
| 20260507095220 | 44 | 48 | 0.0 | 0.0 | 0.00 | 0.17 | 0.17 | 99 | 1000.8 |
| 20260507094718 | 44 | 32 | 0.9 | 0.9 | 0.00 | 0.17 | 0.17 | 99 | 1000.7 |
| 20260507094215 | 44 | 45 | 0.0 | 0.0 | 0.00 | 0.17 | 0.17 | 99 | 1000.1 |
| 20260507093711 | 44 | 46 | 0.0 | 0.0 | 0.00 | 0.17 | 0.17 | 99 | 1000.8 |
| 20260507093210 | 44 | 53 | 0.0 | 0.9 | 0.00 | 0.17 | 0.17 | 99 | 1000.6 |
| 20260507092707 | 44 | 54 | 0.0 | 0.0 | 0.00 | 0.17 | 0.17 | 99 | 1000.6 |
| 20260507092203 | 44 | 54 | 0.0 | 0.0 | 0.00 | 0.17 | 0.17 | 99 | 1000.6 |
| 20260507091700 | 44 | 53 | 0.0 | 0.0 | 0.00 | 0.17 | 0.17 | 99 | 1000.9 |
| 20260507091156 | 44 | 64 | 0.0 | 0.0 | 0.00 | 0.17 | 0.17 | 99 | 1000.9 |
| 20260507090652 | 44 | 64 | 0.0 | 0.0 | 0.00 | 0.17 | 0.17 | 99 | 1000.7 |
| 20260507090149 | 45 | 64 | 0.0 | 0.9 | 0.00 | 0.17 | 0.17 | 99 | 1000.6 |
| 20260507085646 | 45 | 64 | 0.0 | 0.0 | 0.00 | 0.17 | 0.17 | 99 | 1001.3 |
| 20260507085142 | 45 | 13 | 0.9 | 0.9 | 0.00 | 0.17 | 0.17 | 99 | 1001.2 |
| 20260507084639 | 45 | 39 | 0.9 | 0.9 | 0.00 | 0.17 | 0.17 | 99 | 1000.8 |
| 20260507084136 | 45 | 49 | 0.0 | 0.0 | 0.00 | 0.17 | 0.17 | 99 | 1000.8 |
| 20260507083633 | 45 | 57 | 0.0 | 0.0 | 0.00 | 0.17 | 0.17 | 99 | 1000.9 |
| 20260507083130 | 45 | 64 | 0.0 | 0.0 | 0.00 | 0.17 | 0.17 | 99 | 1000.9 |
| 20260507082625 | 45 | 50 | 0.9 | 0.9 | 0.00 | 0.17 | 0.17 | 99 | 1000.7 |
| 20260507082122 | 45 | 43 | 0.0 | 0.0 | 0.00 | 0.17 | 0.17 | 99 | 1000.5 |
| 20260507081619 | 45 | 42 | 0.0 | 0.0 | 0.00 | 0.17 | 0.17 | 99 | 1000.7 |
| 20260507081115 | 45 | 42 | 0.0 | 0.9 | 0.00 | 0.17 | 0.17 | 99 | 1000.8 |
| 20260507080612 | 45 | 42 | 0.0 | 0.9 | 0.00 | 0.17 | 0.17 | 99 | 1000.7 |
| 20260507080108 | 46 | 43 | 0.0 | 0.9 | 0.00 | 0.17 | 0.17 | 99 | 1000.6 |
| 20260507075603 | 46 | 16 | 0.9 | 0.9 | 0.00 | 0.17 | 0.17 | 99 | 1000.5 |
| 20260507075100 | 46 | 49 | 0.9 | 0.9 | 0.00 | 0.17 | 0.17 | 99 | 1000.6 |
| 20260507074556 | 46 | 62 | 0.0 | 0.9 | 0.00 | 0.17 | 0.17 | 99 | 1000.3 |
| 20260507074055 | 46 | 53 | 0.0 | 0.0 | 0.00 | 0.17 | 0.17 | 99 | 1000.6 |
| 20260507073550 | 46 | 350 | 1.7 | 1.7 | 0.00 | 0.17 | 0.17 | 99 | 1000.7 |
| 20260507073047 | 46 | 56 | 0.0 | 0.9 | 0.00 | 0.17 | 0.17 | 99 | 1000.7 |
| 20260507072545 | 46 | 57 | 0.0 | 0.0 | 0.00 | 0.17 | 0.17 | 99 | 1000.8 |
| 20260507072042 | 47 | 297 | 1.7 | 2.6 | 0.00 | 0.17 | 0.17 | 99 | 1000.7 |
| 20260507071539 | 47 | 46 | 0.0 | 0.0 | 0.00 | 0.17 | 0.17 | 99 | 1000.5 |
| 20260507071036 | 47 | 66 | 0.0 | 0.0 | 0.00 | 0.17 | 0.17 | 99 | 1000.2 |
| 20260507070533 | 47 | 78 | 0.0 | 0.0 | 0.00 | 0.17 | 0.17 | 99 | 1000.1 |
| 20260507070030 | 47 | 48 | 0.0 | 0.0 | 0.00 | 0.17 | 0.17 | 99 | 1000.1 |
| 20260507065526 | 47 | 48 | 0.0 | 0.0 | 0.00 | 0.17 | 0.17 | 99 | 1000.1 |
| 20260507065023 | 47 | 49 | 0.0 | 0.0 | 0.00 | 0.17 | 0.17 | 99 | 1000.1 |
| 20260507064521 | 47 | 45 | 0.9 | 0.9 | 0.00 | 0.17 | 0.17 | 99 | 1000.1 |
| 20260507064020 | 47 | 55 | 0.0 | 0.0 | 0.00 | 0.17 | 0.17 | 99 | 999.9 |
| 20260507063516 | 47 | 52 | 0.0 | 0.9 | 0.00 | 0.17 | 0.17 | 99 | 999.9 |
| 20260507063014 | 47 | 70 | 0.0 | 0.0 | 0.00 | 0.17 | 0.17 | 99 | 999.6 |
| 20260507062510 | 47 | 72 | 0.0 | 0.0 | 0.00 | 0.17 | 0.17 | 99 | 999.7 |
| 20260507062008 | 48 | 48 | 0.0 | 0.0 | 0.00 | 0.17 | 0.17 | 99 | 999.6 |
| 20260507061505 | 48 | 48 | 0.0 | 0.0 | 0.00 | 0.17 | 0.17 | 99 | 1000.0 |
| 20260507061003 | 48 | 80 | 0.0 | 0.0 | 0.00 | 0.17 | 0.17 | 99 | 999.9 |
| 20260507060500 | 48 | 52 | 0.0 | 0.0 | 0.00 | 0.17 | 0.17 | 99 | 999.5 |
| 20260507055956 | 48 | 45 | 0.0 | 0.0 | 0.00 | 0.17 | 0.17 | 99 | 999.5 |
| 20260507055452 | 48 | 45 | 0.0 | 0.0 | 0.00 | 0.17 | 0.17 | 99 | 999.6 |
| 20260507054949 | 48 | 45 | 0.0 | 0.9 | 0.00 | 0.17 | 0.17 | 99 | 999.6 |
| 20260507054445 | 48 | 48 | 0.0 | 0.9 | 0.00 | 0.17 | 0.17 | 99 | 999.3 |
| 20260507053942 | 48 | 74 | 0.9 | 0.9 | 0.00 | 0.17 | 0.17 | 99 | 999.4 |
| 20260507053440 | 48 | 62 | 0.0 | 0.0 | 0.00 | 0.17 | 0.17 | 99 | 999.6 |
| 20260507052938 | 48 | 49 | 0.9 | 0.9 | 0.00 | 0.17 | 0.17 | 99 | 999.6 |
| 20260507052436 | 48 | 47 | 1.7 | 2.6 | 0.00 | 0.17 | 0.17 | 99 | 999.5 |
| 20260507051933 | 48 | 70 | 1.7 | 1.7 | 0.00 | 0.17 | 0.17 | 99 | 999.5 |
| 20260507051430 | 49 | 88 | 0.9 | 0.9 | 0.00 | 0.17 | 0.17 | 99 | 999.8 |
| 20260507050927 | 49 | 64 | 0.9 | 0.9 | 0.00 | 0.17 | 0.17 | 99 | 999.8 |
| 20260507050423 | 49 | 76 | 0.9 | 0.9 | 0.00 | 0.17 | 0.17 | 99 | 999.6 |
| 20260507045920 | 49 | 60 | 0.0 | 0.9 | 0.00 | 0.17 | 0.17 | 99 | 1000.0 |
| 20260507045417 | 49 | 73 | 0.0 | 0.9 | 0.05 | 0.17 | 0.17 | 99 | 999.9 |
| 20260507044914 | 50 | 59 | 0.0 | 0.0 | 0.12 | 0.17 | 0.17 | 99 | 999.8 |
| 20260507044411 | 50 | 24 | 1.7 | 3.5 | 0.12 | 0.16 | 0.16 | 99 | 999.7 |
| 20260507043907 | 50 | 81 | 0.9 | 0.9 | 0.12 | 0.15 | 0.15 | 99 | 999.5 |
| 20260507043403 | 50 | 56 | 0.0 | 0.0 | 0.26 | 0.14 | 0.14 | 99 | 1000.0 |
| 20260507042859 | 50 | 68 | 0.9 | 0.9 | 0.47 | 0.13 | 0.13 | 99 | 1000.0 |
| 20260507042355 | 51 | 47 | 1.7 | 2.6 | 0.35 | 0.10 | 0.10 | 99 | 1000.0 |
| 20260507041846 | 51 | 52 | 0.9 | 0.9 | 0.07 | 0.05 | 0.05 | 99 | 1000.0 |
| 20260507041343 | 52 | 91 | 1.7 | 1.7 | 0.00 | 0.04 | 0.04 | 99 | 999.6 |
| 20260507040841 | 52 | 63 | 1.7 | 1.7 | 0.05 | 0.04 | 0.04 | 99 | 999.3 |
| 20260507040337 | 52 | 56 | 0.0 | 0.0 | 0.12 | 0.04 | 0.04 | 99 | 999.0 |